sensor_id;sensor_type;location;lat;lon;timestamp;P1;durP1;ratioP1;P2;durP2;ratioP2
74448;SDS011;62878;51.026;4.472;2022-08-19T00:00:06;1.63;;;1.42;;
74448;SDS011;62878;51.026;4.472;2022-08-19T00:02:34;3.05;;;1.27;;
74448;SDS011;62878;51.026;4.472;2022-08-19T00:05:00;3.63;;;1.70;;
74448;SDS011;62878;51.026;4.472;2022-08-19T00:07:26;3.38;;;1.55;;
74448;SDS011;62878;51.026;4.472;2022-08-19T00:09:52;2.22;;;1.45;;
74448;SDS011;62878;51.026;4.472;2022-08-19T00:12:18;1.95;;;1.75;;
74448;SDS011;62878;51.026;4.472;2022-08-19T00:14:44;2.45;;;1.90;;
74448;SDS011;62878;51.026;4.472;2022-08-19T00:17:09;2.25;;;1.70;;
74448;SDS011;62878;51.026;4.472;2022-08-19T00:19:36;2.47;;;1.98;;
74448;SDS011;62878;51.026;4.472;2022-08-19T00:22:02;3.15;;;1.63;;
74448;SDS011;62878;51.026;4.472;2022-08-19T00:24:30;3.03;;;1.63;;
74448;SDS011;62878;51.026;4.472;2022-08-19T00:26:55;2.45;;;1.38;;
74448;SDS011;62878;51.026;4.472;2022-08-19T00:29:22;2.08;;;1.88;;
74448;SDS011;62878;51.026;4.472;2022-08-19T00:31:50;1.50;;;1.40;;
74448;SDS011;62878;51.026;4.472;2022-08-19T00:34:18;2.03;;;1.60;;
74448;SDS011;62878;51.026;4.472;2022-08-19T00:36:44;3.58;;;1.52;;
74448;SDS011;62878;51.026;4.472;2022-08-19T00:39:10;2.38;;;1.85;;
74448;SDS011;62878;51.026;4.472;2022-08-19T00:41:36;1.80;;;1.58;;
74448;SDS011;62878;51.026;4.472;2022-08-19T00:44:13;2.17;;;1.55;;
74448;SDS011;62878;51.026;4.472;2022-08-19T00:46:41;2.55;;;1.30;;
74448;SDS011;62878;51.026;4.472;2022-08-19T00:49:12;1.88;;;1.77;;
74448;SDS011;62878;51.026;4.472;2022-08-19T00:51:42;1.67;;;1.37;;
74448;SDS011;62878;51.026;4.472;2022-08-19T00:54:12;1.95;;;1.60;;
74448;SDS011;62878;51.026;4.472;2022-08-19T00:56:37;2.13;;;1.80;;
74448;SDS011;62878;51.026;4.472;2022-08-19T00:59:03;1.55;;;1.33;;
74448;SDS011;62878;51.026;4.472;2022-08-19T01:01:37;1.60;;;1.50;;
74448;SDS011;62878;51.026;4.472;2022-08-19T01:04:05;1.63;;;1.50;;
74448;SDS011;62878;51.026;4.472;2022-08-19T01:06:32;2.58;;;2.13;;
74448;SDS011;62878;51.026;4.472;2022-08-19T01:08:59;4.13;;;1.70;;
74448;SDS011;62878;51.026;4.472;2022-08-19T01:11:26;2.05;;;1.73;;
74448;SDS011;62878;51.026;4.472;2022-08-19T01:13:53;3.90;;;1.65;;
74448;SDS011;62878;51.026;4.472;2022-08-19T01:16:20;3.47;;;1.98;;
74448;SDS011;62878;51.026;4.472;2022-08-19T01:18:49;3.17;;;1.73;;
74448;SDS011;62878;51.026;4.472;2022-08-19T01:21:20;2.20;;;2.00;;
74448;SDS011;62878;51.026;4.472;2022-08-19T01:23:52;4.47;;;2.35;;
74448;SDS011;62878;51.026;4.472;2022-08-19T01:26:19;2.28;;;2.08;;
74448;SDS011;62878;51.026;4.472;2022-08-19T01:28:48;2.63;;;1.60;;
74448;SDS011;62878;51.026;4.472;2022-08-19T01:31:19;4.13;;;2.28;;
74448;SDS011;62878;51.026;4.472;2022-08-19T01:33:48;3.17;;;1.80;;
74448;SDS011;62878;51.026;4.472;2022-08-19T01:36:22;2.58;;;2.25;;
74448;SDS011;62878;51.026;4.472;2022-08-19T01:38:51;2.58;;;2.25;;
74448;SDS011;62878;51.026;4.472;2022-08-19T01:41:17;2.80;;;2.00;;
74448;SDS011;62878;51.026;4.472;2022-08-19T01:43:43;3.28;;;2.50;;
74448;SDS011;62878;51.026;4.472;2022-08-19T01:46:09;2.40;;;2.10;;
74448;SDS011;62878;51.026;4.472;2022-08-19T01:48:39;3.25;;;2.08;;
74448;SDS011;62878;51.026;4.472;2022-08-19T01:51:08;3.33;;;2.10;;
74448;SDS011;62878;51.026;4.472;2022-08-19T01:53:35;2.75;;;2.30;;
74448;SDS011;62878;51.026;4.472;2022-08-19T01:56:01;2.58;;;1.95;;
74448;SDS011;62878;51.026;4.472;2022-08-19T01:58:30;2.63;;;2.40;;
74448;SDS011;62878;51.026;4.472;2022-08-19T02:01:02;4.15;;;3.05;;
74448;SDS011;62878;51.026;4.472;2022-08-19T02:03:28;4.47;;;2.65;;
74448;SDS011;62878;51.026;4.472;2022-08-19T02:05:58;3.20;;;2.42;;
74448;SDS011;62878;51.026;4.472;2022-08-19T02:08:35;3.45;;;2.15;;
74448;SDS011;62878;51.026;4.472;2022-08-19T02:11:02;2.85;;;2.50;;
74448;SDS011;62878;51.026;4.472;2022-08-19T02:13:28;5.18;;;3.00;;
74448;SDS011;62878;51.026;4.472;2022-08-19T02:15:53;4.93;;;2.78;;
74448;SDS011;62878;51.026;4.472;2022-08-19T02:18:19;3.95;;;2.72;;
74448;SDS011;62878;51.026;4.472;2022-08-19T02:20:45;5.28;;;3.45;;
74448;SDS011;62878;51.026;4.472;2022-08-19T02:23:12;4.15;;;3.22;;
74448;SDS011;62878;51.026;4.472;2022-08-19T02:25:38;6.65;;;3.88;;
74448;SDS011;62878;51.026;4.472;2022-08-19T02:28:04;6.10;;;3.70;;
74448;SDS011;62878;51.026;4.472;2022-08-19T02:30:31;6.18;;;3.67;;
74448;SDS011;62878;51.026;4.472;2022-08-19T02:32:56;6.85;;;3.90;;
74448;SDS011;62878;51.026;4.472;2022-08-19T02:35:22;4.38;;;3.42;;
74448;SDS011;62878;51.026;4.472;2022-08-19T02:37:48;5.40;;;4.00;;
74448;SDS011;62878;51.026;4.472;2022-08-19T02:40:32;5.88;;;3.58;;
74448;SDS011;62878;51.026;4.472;2022-08-19T02:43:05;5.35;;;3.90;;
74448;SDS011;62878;51.026;4.472;2022-08-19T02:45:34;4.82;;;3.97;;
74448;SDS011;62878;51.026;4.472;2022-08-19T02:48:01;8.30;;;4.82;;
74448;SDS011;62878;51.026;4.472;2022-08-19T02:50:27;7.30;;;4.75;;
74448;SDS011;62878;51.026;4.472;2022-08-19T02:52:54;5.47;;;3.80;;
74448;SDS011;62878;51.026;4.472;2022-08-19T02:55:21;7.35;;;4.00;;
74448;SDS011;62878;51.026;4.472;2022-08-19T02:57:46;6.32;;;4.20;;
74448;SDS011;62878;51.026;4.472;2022-08-19T03:00:13;7.30;;;4.75;;
74448;SDS011;62878;51.026;4.472;2022-08-19T03:02:39;8.15;;;5.18;;
74448;SDS011;62878;51.026;4.472;2022-08-19T03:05:05;7.55;;;5.22;;
74448;SDS011;62878;51.026;4.472;2022-08-19T03:07:32;7.28;;;4.32;;
74448;SDS011;62878;51.026;4.472;2022-08-19T03:09:58;7.70;;;5.35;;
74448;SDS011;62878;51.026;4.472;2022-08-19T03:12:23;9.65;;;5.80;;
74448;SDS011;62878;51.026;4.472;2022-08-19T03:14:48;6.15;;;4.90;;
74448;SDS011;62878;51.026;4.472;2022-08-19T03:17:14;6.88;;;5.28;;
74448;SDS011;62878;51.026;4.472;2022-08-19T03:19:39;7.30;;;4.88;;
74448;SDS011;62878;51.026;4.472;2022-08-19T03:22:05;8.68;;;5.57;;
74448;SDS011;62878;51.026;4.472;2022-08-19T03:24:31;7.65;;;4.93;;
74448;SDS011;62878;51.026;4.472;2022-08-19T03:26:56;10.70;;;6.18;;
74448;SDS011;62878;51.026;4.472;2022-08-19T03:29:25;8.73;;;5.40;;
74448;SDS011;62878;51.026;4.472;2022-08-19T03:31:51;8.52;;;6.10;;
74448;SDS011;62878;51.026;4.472;2022-08-19T03:34:19;8.00;;;5.07;;
74448;SDS011;62878;51.026;4.472;2022-08-19T03:36:53;6.85;;;4.95;;
74448;SDS011;62878;51.026;4.472;2022-08-19T03:39:19;7.47;;;5.25;;
74448;SDS011;62878;51.026;4.472;2022-08-19T03:41:47;8.93;;;5.43;;
74448;SDS011;62878;51.026;4.472;2022-08-19T03:44:18;7.45;;;5.03;;
74448;SDS011;62878;51.026;4.472;2022-08-19T03:46:49;8.55;;;5.88;;
74448;SDS011;62878;51.026;4.472;2022-08-19T03:49:20;7.88;;;5.20;;
74448;SDS011;62878;51.026;4.472;2022-08-19T03:51:47;6.93;;;5.22;;
74448;SDS011;62878;51.026;4.472;2022-08-19T03:54:14;7.35;;;5.20;;
74448;SDS011;62878;51.026;4.472;2022-08-19T03:56:42;7.30;;;5.35;;
74448;SDS011;62878;51.026;4.472;2022-08-19T03:59:10;9.20;;;5.88;;
74448;SDS011;62878;51.026;4.472;2022-08-19T04:01:38;7.15;;;5.20;;
74448;SDS011;62878;51.026;4.472;2022-08-19T04:04:03;7.03;;;5.22;;
74448;SDS011;62878;51.026;4.472;2022-08-19T04:06:30;9.27;;;5.68;;
74448;SDS011;62878;51.026;4.472;2022-08-19T04:08:59;6.72;;;4.80;;
74448;SDS011;62878;51.026;4.472;2022-08-19T04:11:27;7.47;;;5.28;;
74448;SDS011;62878;51.026;4.472;2022-08-19T04:13:55;7.03;;;5.10;;
74448;SDS011;62878;51.026;4.472;2022-08-19T04:16:22;11.88;;;6.05;;
74448;SDS011;62878;51.026;4.472;2022-08-19T04:18:49;6.97;;;5.38;;
74448;SDS011;62878;51.026;4.472;2022-08-19T04:21:24;8.40;;;5.82;;
74448;SDS011;62878;51.026;4.472;2022-08-19T04:23:51;6.55;;;4.78;;
74448;SDS011;62878;51.026;4.472;2022-08-19T04:26:19;6.55;;;4.70;;
74448;SDS011;62878;51.026;4.472;2022-08-19T04:28:47;7.10;;;4.85;;
74448;SDS011;62878;51.026;4.472;2022-08-19T04:31:20;7.10;;;5.20;;
74448;SDS011;62878;51.026;4.472;2022-08-19T04:33:50;7.07;;;4.82;;
74448;SDS011;62878;51.026;4.472;2022-08-19T04:36:20;8.32;;;5.03;;
74448;SDS011;62878;51.026;4.472;2022-08-19T04:38:48;8.55;;;5.25;;
74448;SDS011;62878;51.026;4.472;2022-08-19T04:41:14;7.38;;;5.07;;
74448;SDS011;62878;51.026;4.472;2022-08-19T04:46:24;7.28;;;4.13;;
74448;SDS011;62878;51.026;4.472;2022-08-19T04:48:49;7.22;;;4.35;;
74448;SDS011;62878;51.026;4.472;2022-08-19T04:51:14;7.53;;;4.72;;
74448;SDS011;62878;51.026;4.472;2022-08-19T04:53:40;6.75;;;4.57;;
74448;SDS011;62878;51.026;4.472;2022-08-19T04:56:10;9.70;;;5.00;;
74448;SDS011;62878;51.026;4.472;2022-08-19T04:58:42;6.32;;;4.35;;
74448;SDS011;62878;51.026;4.472;2022-08-19T05:01:11;6.95;;;4.47;;
74448;SDS011;62878;51.026;4.472;2022-08-19T05:03:38;6.97;;;4.90;;
74448;SDS011;62878;51.026;4.472;2022-08-19T05:06:10;6.80;;;4.85;;
74448;SDS011;62878;51.026;4.472;2022-08-19T05:08:38;6.32;;;4.57;;
74448;SDS011;62878;51.026;4.472;2022-08-19T05:13:47;5.10;;;3.47;;
74448;SDS011;62878;51.026;4.472;2022-08-19T05:16:14;6.28;;;4.30;;
74448;SDS011;62878;51.026;4.472;2022-08-19T05:18:42;5.78;;;4.05;;
74448;SDS011;62878;51.026;4.472;2022-08-19T05:21:27;4.68;;;3.75;;
74448;SDS011;62878;51.026;4.472;2022-08-19T05:24:11;6.03;;;4.20;;
74448;SDS011;62878;51.026;4.472;2022-08-19T05:26:39;5.05;;;3.78;;
74448;SDS011;62878;51.026;4.472;2022-08-19T05:29:06;4.28;;;3.47;;
74448;SDS011;62878;51.026;4.472;2022-08-19T05:31:33;6.40;;;4.15;;
74448;SDS011;62878;51.026;4.472;2022-08-19T05:34:00;4.32;;;3.30;;
74448;SDS011;62878;51.026;4.472;2022-08-19T05:36:26;5.70;;;3.95;;
74448;SDS011;62878;51.026;4.472;2022-08-19T05:38:52;5.68;;;3.55;;
74448;SDS011;62878;51.026;4.472;2022-08-19T05:41:19;5.72;;;3.70;;
74448;SDS011;62878;51.026;4.472;2022-08-19T05:43:45;5.07;;;3.65;;
74448;SDS011;62878;51.026;4.472;2022-08-19T05:46:18;5.40;;;3.67;;
74448;SDS011;62878;51.026;4.472;2022-08-19T05:48:44;5.22;;;3.53;;
74448;SDS011;62878;51.026;4.472;2022-08-19T05:51:10;6.18;;;3.72;;
74448;SDS011;62878;51.026;4.472;2022-08-19T05:53:36;4.20;;;3.15;;
74448;SDS011;62878;51.026;4.472;2022-08-19T05:56:10;4.32;;;2.95;;
74448;SDS011;62878;51.026;4.472;2022-08-19T05:58:37;4.15;;;2.90;;
74448;SDS011;62878;51.026;4.472;2022-08-19T06:01:04;5.85;;;3.13;;
74448;SDS011;62878;51.026;4.472;2022-08-19T06:03:36;3.97;;;2.50;;
74448;SDS011;62878;51.026;4.472;2022-08-19T06:06:03;3.15;;;2.15;;
74448;SDS011;62878;51.026;4.472;2022-08-19T06:08:29;3.40;;;2.35;;
74448;SDS011;62878;51.026;4.472;2022-08-19T06:10:55;3.88;;;2.97;;
74448;SDS011;62878;51.026;4.472;2022-08-19T06:13:21;5.70;;;2.95;;
74448;SDS011;62878;51.026;4.472;2022-08-19T06:15:47;3.83;;;2.58;;
74448;SDS011;62878;51.026;4.472;2022-08-19T06:18:13;4.53;;;2.78;;
74448;SDS011;62878;51.026;4.472;2022-08-19T06:20:40;3.53;;;2.67;;
74448;SDS011;62878;51.026;4.472;2022-08-19T06:23:06;3.63;;;2.70;;
74448;SDS011;62878;51.026;4.472;2022-08-19T06:25:33;3.40;;;2.38;;
74448;SDS011;62878;51.026;4.472;2022-08-19T06:27:59;3.25;;;2.10;;
74448;SDS011;62878;51.026;4.472;2022-08-19T06:30:25;3.65;;;2.35;;
74448;SDS011;62878;51.026;4.472;2022-08-19T06:32:50;5.35;;;1.63;;
74448;SDS011;62878;51.026;4.472;2022-08-19T06:35:16;3.20;;;2.70;;
74448;SDS011;62878;51.026;4.472;2022-08-19T06:37:41;4.68;;;2.40;;
74448;SDS011;62878;51.026;4.472;2022-08-19T06:40:08;5.30;;;2.40;;
74448;SDS011;62878;51.026;4.472;2022-08-19T06:42:35;3.17;;;2.38;;
74448;SDS011;62878;51.026;4.472;2022-08-19T06:45:03;4.28;;;2.50;;
74448;SDS011;62878;51.026;4.472;2022-08-19T06:47:29;3.00;;;2.17;;
74448;SDS011;62878;51.026;4.472;2022-08-19T06:49:56;3.80;;;2.47;;
74448;SDS011;62878;51.026;4.472;2022-08-19T06:52:31;2.78;;;2.22;;
74448;SDS011;62878;51.026;4.472;2022-08-19T06:54:58;3.85;;;1.90;;
74448;SDS011;62878;51.026;4.472;2022-08-19T06:57:24;2.72;;;2.00;;
74448;SDS011;62878;51.026;4.472;2022-08-19T06:59:51;3.30;;;1.90;;
74448;SDS011;62878;51.026;4.472;2022-08-19T07:02:17;3.20;;;2.38;;
74448;SDS011;62878;51.026;4.472;2022-08-19T07:04:43;5.80;;;2.35;;
74448;SDS011;62878;51.026;4.472;2022-08-19T07:07:10;5.97;;;1.98;;
74448;SDS011;62878;51.026;4.472;2022-08-19T07:09:38;2.45;;;1.65;;
74448;SDS011;62878;51.026;4.472;2022-08-19T07:12:06;3.70;;;1.95;;
74448;SDS011;62878;51.026;4.472;2022-08-19T07:14:33;3.47;;;2.20;;
74448;SDS011;62878;51.026;4.472;2022-08-19T07:17:03;6.95;;;3.22;;
74448;SDS011;62878;51.026;4.472;2022-08-19T07:19:31;10.60;;;3.38;;
74448;SDS011;62878;51.026;4.472;2022-08-19T07:21:57;12.40;;;3.00;;
74448;SDS011;62878;51.026;4.472;2022-08-19T07:24:24;9.90;;;2.88;;
74448;SDS011;62878;51.026;4.472;2022-08-19T07:26:52;5.70;;;2.85;;
74448;SDS011;62878;51.026;4.472;2022-08-19T07:29:23;6.15;;;2.85;;
74448;SDS011;62878;51.026;4.472;2022-08-19T07:31:50;5.32;;;1.95;;
74448;SDS011;62878;51.026;4.472;2022-08-19T07:34:16;7.20;;;2.30;;
74448;SDS011;62878;51.026;4.472;2022-08-19T07:36:42;5.78;;;2.80;;
74448;SDS011;62878;51.026;4.472;2022-08-19T07:39:14;3.83;;;1.85;;
74448;SDS011;62878;51.026;4.472;2022-08-19T07:41:43;5.38;;;2.03;;
74448;SDS011;62878;51.026;4.472;2022-08-19T07:44:10;8.05;;;3.20;;
74448;SDS011;62878;51.026;4.472;2022-08-19T07:46:38;8.07;;;1.70;;
74448;SDS011;62878;51.026;4.472;2022-08-19T07:49:06;4.63;;;1.48;;
74448;SDS011;62878;51.026;4.472;2022-08-19T07:51:32;5.47;;;1.95;;
74448;SDS011;62878;51.026;4.472;2022-08-19T07:53:58;6.10;;;1.48;;
74448;SDS011;62878;51.026;4.472;2022-08-19T07:56:24;5.50;;;1.73;;
74448;SDS011;62878;51.026;4.472;2022-08-19T07:58:50;6.63;;;1.90;;
74448;SDS011;62878;51.026;4.472;2022-08-19T08:01:21;3.72;;;2.85;;
74448;SDS011;62878;51.026;4.472;2022-08-19T08:03:50;2.47;;;1.60;;
74448;SDS011;62878;51.026;4.472;2022-08-19T08:06:35;5.03;;;1.65;;
74448;SDS011;62878;51.026;4.472;2022-08-19T08:09:23;3.83;;;1.65;;
74448;SDS011;62878;51.026;4.472;2022-08-19T08:11:53;4.78;;;1.50;;
74448;SDS011;62878;51.026;4.472;2022-08-19T08:14:43;3.45;;;2.25;;
74448;SDS011;62878;51.026;4.472;2022-08-19T08:17:11;4.75;;;1.40;;
74448;SDS011;62878;51.026;4.472;2022-08-19T08:19:39;3.95;;;2.30;;
74448;SDS011;62878;51.026;4.472;2022-08-19T08:22:06;3.55;;;2.00;;
74448;SDS011;62878;51.026;4.472;2022-08-19T08:24:32;4.70;;;1.52;;
74448;SDS011;62878;51.026;4.472;2022-08-19T08:27:00;1.90;;;1.50;;
74448;SDS011;62878;51.026;4.472;2022-08-19T08:29:26;3.75;;;1.60;;
74448;SDS011;62878;51.026;4.472;2022-08-19T08:31:54;3.33;;;1.33;;
74448;SDS011;62878;51.026;4.472;2022-08-19T08:34:22;2.00;;;1.52;;
74448;SDS011;62878;51.026;4.472;2022-08-19T08:36:47;4.40;;;1.52;;
74448;SDS011;62878;51.026;4.472;2022-08-19T08:39:13;5.00;;;2.40;;
74448;SDS011;62878;51.026;4.472;2022-08-19T08:41:56;4.53;;;1.23;;
74448;SDS011;62878;51.026;4.472;2022-08-19T08:44:49;4.63;;;1.30;;
74448;SDS011;62878;51.026;4.472;2022-08-19T08:47:22;2.60;;;1.20;;
74448;SDS011;62878;51.026;4.472;2022-08-19T08:49:57;3.72;;;1.60;;
74448;SDS011;62878;51.026;4.472;2022-08-19T08:54:54;3.13;;;1.10;;
74448;SDS011;62878;51.026;4.472;2022-08-19T08:59:53;8.90;;;1.58;;
74448;SDS011;62878;51.026;4.472;2022-08-19T09:02:19;11.23;;;1.63;;
74448;SDS011;62878;51.026;4.472;2022-08-19T09:04:45;5.65;;;1.42;;
74448;SDS011;62878;51.026;4.472;2022-08-19T09:09:50;4.45;;;2.00;;
74448;SDS011;62878;51.026;4.472;2022-08-19T09:15:06;3.28;;;1.65;;
74448;SDS011;62878;51.026;4.472;2022-08-19T09:17:34;3.10;;;1.85;;
74448;SDS011;62878;51.026;4.472;2022-08-19T09:20:01;5.38;;;1.23;;
74448;SDS011;62878;51.026;4.472;2022-08-19T09:22:33;2.25;;;1.20;;
74448;SDS011;62878;51.026;4.472;2022-08-19T09:24:58;5.50;;;1.77;;
74448;SDS011;62878;51.026;4.472;2022-08-19T09:27:24;7.80;;;1.83;;
74448;SDS011;62878;51.026;4.472;2022-08-19T09:29:52;4.85;;;1.40;;
74448;SDS011;62878;51.026;4.472;2022-08-19T09:32:19;9.35;;;1.30;;
74448;SDS011;62878;51.026;4.472;2022-08-19T09:34:46;5.95;;;2.08;;
74448;SDS011;62878;51.026;4.472;2022-08-19T09:37:12;8.10;;;2.17;;
74448;SDS011;62878;51.026;4.472;2022-08-19T09:39:38;3.10;;;1.80;;
74448;SDS011;62878;51.026;4.472;2022-08-19T09:42:05;3.53;;;1.67;;
74448;SDS011;62878;51.026;4.472;2022-08-19T09:44:38;6.00;;;1.88;;
74448;SDS011;62878;51.026;4.472;2022-08-19T09:47:04;5.50;;;1.92;;
74448;SDS011;62878;51.026;4.472;2022-08-19T09:49:30;4.80;;;1.98;;
74448;SDS011;62878;51.026;4.472;2022-08-19T09:51:56;4.55;;;2.10;;
74448;SDS011;62878;51.026;4.472;2022-08-19T09:54:22;6.70;;;2.15;;
74448;SDS011;62878;51.026;4.472;2022-08-19T09:56:48;6.35;;;1.95;;
74448;SDS011;62878;51.026;4.472;2022-08-19T09:59:14;4.47;;;2.17;;
74448;SDS011;62878;51.026;4.472;2022-08-19T10:01:40;4.35;;;2.13;;
74448;SDS011;62878;51.026;4.472;2022-08-19T10:04:05;4.45;;;2.10;;
74448;SDS011;62878;51.026;4.472;2022-08-19T10:06:34;6.07;;;1.60;;
74448;SDS011;62878;51.026;4.472;2022-08-19T10:09:01;11.27;;;2.03;;
74448;SDS011;62878;51.026;4.472;2022-08-19T10:11:29;7.07;;;2.13;;
74448;SDS011;62878;51.026;4.472;2022-08-19T10:13:55;12.25;;;1.88;;
74448;SDS011;62878;51.026;4.472;2022-08-19T10:16:21;15.95;;;3.28;;
74448;SDS011;62878;51.026;4.472;2022-08-19T10:18:48;11.27;;;1.88;;
74448;SDS011;62878;51.026;4.472;2022-08-19T10:21:19;33.95;;;3.97;;
74448;SDS011;62878;51.026;4.472;2022-08-19T10:23:51;5.07;;;1.55;;
74448;SDS011;62878;51.026;4.472;2022-08-19T10:26:21;5.93;;;2.00;;
74448;SDS011;62878;51.026;4.472;2022-08-19T10:28:49;9.60;;;2.22;;
74448;SDS011;62878;51.026;4.472;2022-08-19T10:31:19;3.95;;;1.80;;
74448;SDS011;62878;51.026;4.472;2022-08-19T10:33:48;3.30;;;1.27;;
74448;SDS011;62878;51.026;4.472;2022-08-19T10:36:15;5.00;;;1.77;;
74448;SDS011;62878;51.026;4.472;2022-08-19T10:38:44;3.35;;;1.52;;
74448;SDS011;62878;51.026;4.472;2022-08-19T10:41:11;3.47;;;1.98;;
74448;SDS011;62878;51.026;4.472;2022-08-19T10:43:39;5.05;;;1.75;;
74448;SDS011;62878;51.026;4.472;2022-08-19T10:46:06;5.53;;;1.58;;
74448;SDS011;62878;51.026;4.472;2022-08-19T10:48:36;4.32;;;1.58;;
74448;SDS011;62878;51.026;4.472;2022-08-19T10:51:02;5.07;;;1.83;;
74448;SDS011;62878;51.026;4.472;2022-08-19T10:53:47;5.10;;;1.83;;
74448;SDS011;62878;51.026;4.472;2022-08-19T10:56:13;2.00;;;1.10;;
74448;SDS011;62878;51.026;4.472;2022-08-19T10:58:57;3.22;;;2.03;;
74448;SDS011;62878;51.026;4.472;2022-08-19T11:01:23;3.40;;;1.35;;
74448;SDS011;62878;51.026;4.472;2022-08-19T11:03:49;3.70;;;1.15;;
74448;SDS011;62878;51.026;4.472;2022-08-19T11:06:15;1.60;;;0.95;;
74448;SDS011;62878;51.026;4.472;2022-08-19T11:08:41;3.17;;;1.00;;
74448;SDS011;62878;51.026;4.472;2022-08-19T11:11:10;2.92;;;1.20;;
74448;SDS011;62878;51.026;4.472;2022-08-19T11:13:36;3.00;;;1.20;;
74448;SDS011;62878;51.026;4.472;2022-08-19T11:18:29;4.32;;;1.45;;
74448;SDS011;62878;51.026;4.472;2022-08-19T11:20:55;3.83;;;1.02;;
74448;SDS011;62878;51.026;4.472;2022-08-19T11:23:30;3.10;;;1.10;;
74448;SDS011;62878;51.026;4.472;2022-08-19T11:25:56;2.40;;;1.40;;
74448;SDS011;62878;51.026;4.472;2022-08-19T11:28:21;1.92;;;1.20;;
74448;SDS011;62878;51.026;4.472;2022-08-19T11:30:47;3.92;;;1.48;;
74448;SDS011;62878;51.026;4.472;2022-08-19T11:33:12;1.70;;;1.15;;
74448;SDS011;62878;51.026;4.472;2022-08-19T11:35:38;2.03;;;1.30;;
74448;SDS011;62878;51.026;4.472;2022-08-19T11:38:06;1.88;;;1.10;;
74448;SDS011;62878;51.026;4.472;2022-08-19T11:40:31;1.45;;;0.75;;
74448;SDS011;62878;51.026;4.472;2022-08-19T11:42:58;2.88;;;1.25;;
74448;SDS011;62878;51.026;4.472;2022-08-19T11:45:24;1.27;;;0.70;;
74448;SDS011;62878;51.026;4.472;2022-08-19T11:47:52;2.13;;;1.10;;
74448;SDS011;62878;51.026;4.472;2022-08-19T11:50:17;2.03;;;1.10;;
74448;SDS011;62878;51.026;4.472;2022-08-19T11:52:43;2.15;;;0.93;;
74448;SDS011;62878;51.026;4.472;2022-08-19T11:55:10;4.00;;;1.38;;
74448;SDS011;62878;51.026;4.472;2022-08-19T11:57:37;2.25;;;1.27;;
74448;SDS011;62878;51.026;4.472;2022-08-19T12:00:03;1.83;;;0.93;;
74448;SDS011;62878;51.026;4.472;2022-08-19T12:02:32;1.70;;;0.80;;
74448;SDS011;62878;51.026;4.472;2022-08-19T12:04:57;3.53;;;1.02;;
74448;SDS011;62878;51.026;4.472;2022-08-19T12:07:22;2.60;;;1.10;;
74448;SDS011;62878;51.026;4.472;2022-08-19T12:09:48;2.05;;;1.00;;
74448;SDS011;62878;51.026;4.472;2022-08-19T12:12:13;2.90;;;1.40;;
74448;SDS011;62878;51.026;4.472;2022-08-19T12:14:39;1.40;;;1.02;;
74448;SDS011;62878;51.026;4.472;2022-08-19T12:17:06;2.20;;;1.05;;
74448;SDS011;62878;51.026;4.472;2022-08-19T12:19:33;3.13;;;1.08;;
74448;SDS011;62878;51.026;4.472;2022-08-19T12:21:59;2.25;;;0.98;;
74448;SDS011;62878;51.026;4.472;2022-08-19T12:24:26;2.20;;;0.82;;
74448;SDS011;62878;51.026;4.472;2022-08-19T12:26:52;3.17;;;1.15;;
74448;SDS011;62878;51.026;4.472;2022-08-19T12:29:18;1.50;;;0.93;;
74448;SDS011;62878;51.026;4.472;2022-08-19T12:31:44;1.30;;;1.00;;
74448;SDS011;62878;51.026;4.472;2022-08-19T12:34:09;2.80;;;0.77;;
74448;SDS011;62878;51.026;4.472;2022-08-19T12:36:35;2.05;;;1.05;;
74448;SDS011;62878;51.026;4.472;2022-08-19T12:39:00;2.30;;;0.80;;
74448;SDS011;62878;51.026;4.472;2022-08-19T12:41:26;2.08;;;1.10;;
74448;SDS011;62878;51.026;4.472;2022-08-19T12:43:51;1.92;;;0.90;;
74448;SDS011;62878;51.026;4.472;2022-08-19T12:46:17;3.15;;;0.93;;
74448;SDS011;62878;51.026;4.472;2022-08-19T12:48:44;3.72;;;0.93;;
74448;SDS011;62878;51.026;4.472;2022-08-19T12:51:13;2.08;;;0.90;;
74448;SDS011;62878;51.026;4.472;2022-08-19T12:53:40;1.38;;;0.70;;
74448;SDS011;62878;51.026;4.472;2022-08-19T12:56:08;1.95;;;1.00;;
74448;SDS011;62878;51.026;4.472;2022-08-19T12:58:35;1.80;;;0.93;;
74448;SDS011;62878;51.026;4.472;2022-08-19T13:01:08;3.72;;;1.15;;
74448;SDS011;62878;51.026;4.472;2022-08-19T13:03:35;2.33;;;1.38;;
74448;SDS011;62878;51.026;4.472;2022-08-19T13:06:01;1.95;;;0.85;;
74448;SDS011;62878;51.026;4.472;2022-08-19T13:08:27;1.40;;;0.70;;
74448;SDS011;62878;51.026;4.472;2022-08-19T13:10:52;2.03;;;1.00;;
74448;SDS011;62878;51.026;4.472;2022-08-19T13:13:18;1.88;;;0.95;;
74448;SDS011;62878;51.026;4.472;2022-08-19T13:15:44;2.70;;;1.00;;
74448;SDS011;62878;51.026;4.472;2022-08-19T13:18:10;3.92;;;0.73;;
74448;SDS011;62878;51.026;4.472;2022-08-19T13:20:37;2.60;;;1.27;;
74448;SDS011;62878;51.026;4.472;2022-08-19T13:23:05;1.63;;;1.05;;
74448;SDS011;62878;51.026;4.472;2022-08-19T13:25:31;1.92;;;0.90;;
74448;SDS011;62878;51.026;4.472;2022-08-19T13:27:57;2.72;;;1.42;;
74448;SDS011;62878;51.026;4.472;2022-08-19T13:30:22;5.10;;;0.93;;
74448;SDS011;62878;51.026;4.472;2022-08-19T13:33:07;2.33;;;0.93;;
74448;SDS011;62878;51.026;4.472;2022-08-19T13:35:40;1.90;;;1.10;;
74448;SDS011;62878;51.026;4.472;2022-08-19T13:38:08;1.10;;;0.80;;
74448;SDS011;62878;51.026;4.472;2022-08-19T13:40:34;1.55;;;0.90;;
74448;SDS011;62878;51.026;4.472;2022-08-19T13:43:01;1.25;;;1.00;;
74448;SDS011;62878;51.026;4.472;2022-08-19T13:45:27;1.30;;;1.00;;
74448;SDS011;62878;51.026;4.472;2022-08-19T13:47:55;1.38;;;0.85;;
74448;SDS011;62878;51.026;4.472;2022-08-19T13:50:23;1.90;;;1.00;;
74448;SDS011;62878;51.026;4.472;2022-08-19T13:52:53;1.90;;;1.00;;
74448;SDS011;62878;51.026;4.472;2022-08-19T13:55:20;1.35;;;0.82;;
74448;SDS011;62878;51.026;4.472;2022-08-19T13:57:49;1.63;;;0.80;;
74448;SDS011;62878;51.026;4.472;2022-08-19T14:00:18;1.02;;;0.80;;
74448;SDS011;62878;51.026;4.472;2022-08-19T14:02:45;1.50;;;0.82;;
74448;SDS011;62878;51.026;4.472;2022-08-19T14:05:13;1.10;;;0.70;;
74448;SDS011;62878;51.026;4.472;2022-08-19T14:07:40;0.90;;;0.60;;
74448;SDS011;62878;51.026;4.472;2022-08-19T14:10:07;1.20;;;0.68;;
74448;SDS011;62878;51.026;4.472;2022-08-19T14:12:34;3.08;;;1.20;;
74448;SDS011;62878;51.026;4.472;2022-08-19T14:15:00;1.75;;;0.80;;
74448;SDS011;62878;51.026;4.472;2022-08-19T14:17:27;1.00;;;0.65;;
74448;SDS011;62878;51.026;4.472;2022-08-19T14:19:57;4.13;;;0.90;;
74448;SDS011;62878;51.026;4.472;2022-08-19T14:22:25;2.88;;;0.70;;
74448;SDS011;62878;51.026;4.472;2022-08-19T14:24:51;2.45;;;0.73;;
74448;SDS011;62878;51.026;4.472;2022-08-19T14:27:16;1.08;;;0.80;;
74448;SDS011;62878;51.026;4.472;2022-08-19T14:29:42;1.10;;;0.75;;
74448;SDS011;62878;51.026;4.472;2022-08-19T14:32:07;1.30;;;0.75;;
74448;SDS011;62878;51.026;4.472;2022-08-19T14:34:33;2.92;;;0.88;;
74448;SDS011;62878;51.026;4.472;2022-08-19T14:36:58;0.70;;;0.60;;
74448;SDS011;62878;51.026;4.472;2022-08-19T14:39:24;0.65;;;0.50;;
74448;SDS011;62878;51.026;4.472;2022-08-19T14:41:49;0.80;;;0.50;;
74448;SDS011;62878;51.026;4.472;2022-08-19T14:44:15;0.95;;;0.55;;
74448;SDS011;62878;51.026;4.472;2022-08-19T14:46:40;1.95;;;0.70;;
74448;SDS011;62878;51.026;4.472;2022-08-19T14:49:06;1.15;;;0.68;;
74448;SDS011;62878;51.026;4.472;2022-08-19T14:51:33;1.63;;;0.80;;
74448;SDS011;62878;51.026;4.472;2022-08-19T14:53:58;1.05;;;0.60;;
74448;SDS011;62878;51.026;4.472;2022-08-19T14:56:25;0.60;;;0.30;;
74448;SDS011;62878;51.026;4.472;2022-08-19T14:58:52;1.35;;;0.50;;
74448;SDS011;62878;51.026;4.472;2022-08-19T15:01:19;1.77;;;0.70;;
74448;SDS011;62878;51.026;4.472;2022-08-19T15:03:46;1.65;;;0.80;;
74448;SDS011;62878;51.026;4.472;2022-08-19T15:06:12;0.77;;;0.50;;
74448;SDS011;62878;51.026;4.472;2022-08-19T15:08:38;4.05;;;0.65;;